createdAt,value
2023-03-02T00:01:57.875Z,14.77
2023-03-02T00:04:30.502Z,16.27
2023-03-02T00:07:01.492Z,14.18
2023-03-02T00:09:30.539Z,14.95
2023-03-02T00:11:59.563Z,15.40
2023-03-02T00:14:29.741Z,15.90
2023-03-02T00:16:58.683Z,14.77
2023-03-02T00:19:27.399Z,14.63
2023-03-02T00:21:56.085Z,14.07
2023-03-02T00:24:24.975Z,15.90
2023-03-02T00:26:53.702Z,15.73
2023-03-02T00:29:22.516Z,16.38
2023-03-02T00:31:52.740Z,11.32
2023-03-02T00:34:21.734Z,11.85
2023-03-02T00:36:50.367Z,14.85
2023-03-02T00:39:20.208Z,13.50
2023-03-02T00:41:49.732Z,13.40
2023-03-02T00:44:18.662Z,12.32
2023-03-02T00:46:47.725Z,15.85
2023-03-02T00:49:17.864Z,15.35
2023-03-02T00:51:46.545Z,14.93
2023-03-02T00:54:15.467Z,14.48
2023-03-02T00:56:44.452Z,12.57
2023-03-02T00:59:26.314Z,13.43
2023-03-02T01:02:03.189Z,12.27
2023-03-02T01:04:38.224Z,11.93
2023-03-02T01:07:10.696Z,14.30
2023-03-02T01:09:39.860Z,17.25
2023-03-02T01:12:11.176Z,16.45
2023-03-02T01:14:41.467Z,13.90
2023-03-02T01:17:11.599Z,11.30
2023-03-02T01:19:42.062Z,11.43
2023-03-02T01:22:11.469Z,13.93
2023-03-02T01:24:42.194Z,14.18
2023-03-02T01:27:11.862Z,13.38
2023-03-02T01:29:40.829Z,12.48
2023-03-02T01:32:09.748Z,13.13
2023-03-02T01:34:38.505Z,13.02
2023-03-02T01:37:09.699Z,15.75
2023-03-02T01:39:38.496Z,14.20
2023-03-02T01:42:07.589Z,10.30
2023-03-02T01:44:39.746Z,12.07
2023-03-02T01:47:15.661Z,15.25
2023-03-02T01:49:57.370Z,11.15
2023-03-02T01:52:32.710Z,11.43
2023-03-02T01:55:05.553Z,11.18
2023-03-02T01:57:44.963Z,13.20
2023-03-02T02:00:17.458Z,15.70
2023-03-02T02:02:46.473Z,12.93
2023-03-02T02:05:20.801Z,13.63
2023-03-02T02:07:51.417Z,15.10
2023-03-02T02:10:20.866Z,10.93
2023-03-02T02:12:49.679Z,13.77
2023-03-02T02:15:18.620Z,12.75
2023-03-02T02:17:47.860Z,15.77
2023-03-02T02:20:25.126Z,12.90
2023-03-02T02:23:06.764Z,10.65
2023-03-02T02:25:48.189Z,10.75
2023-03-02T02:28:24.366Z,12.95
2023-03-02T02:31:00.553Z,11.23
2023-03-02T02:33:29.721Z,13.05
2023-03-02T02:36:05.224Z,11.82
2023-03-02T02:38:35.528Z,10.60
2023-03-02T02:41:07.774Z,11.27
2023-03-02T02:46:08.367Z,9.65
2023-03-02T02:48:37.132Z,12.48
2023-03-02T02:51:10.045Z,12.07
2023-03-02T02:53:44.311Z,12.90
2023-03-02T02:56:14.847Z,12.52
2023-03-02T02:58:50.503Z,11.82
2023-03-02T03:01:25.395Z,10.27
2023-03-02T03:03:57.904Z,12.57
2023-03-02T03:06:30.444Z,11.55
2023-03-02T03:11:41.454Z,9.10
2023-03-02T03:14:14.336Z,9.10
2023-03-02T03:16:46.564Z,13.05
2023-03-02T03:19:19.779Z,11.82
2023-03-02T03:21:53.211Z,10.82
2023-03-02T03:24:23.249Z,10.27
2023-03-02T03:26:52.332Z,12.63
2023-03-02T03:29:24.768Z,9.32
2023-03-02T03:31:57.691Z,10.35
2023-03-02T03:34:27.241Z,12.63
2023-03-02T03:37:01.702Z,11.15
2023-03-02T03:39:33.531Z,11.38
2023-03-02T03:42:02.528Z,13.65
2023-03-02T03:44:33.133Z,13.45
2023-03-02T03:47:02.125Z,12.27
2023-03-02T03:49:31.133Z,11.50
2023-03-02T03:51:59.870Z,14.57
2023-03-02T03:54:28.847Z,10.35
2023-03-02T03:56:57.595Z,11.18
2023-03-02T03:59:28.888Z,11.00
2023-03-02T04:02:04.804Z,11.18
2023-03-02T04:04:38.173Z,9.32
2023-03-02T04:07:11.936Z,11.32
2023-03-02T04:09:40.974Z,10.18
2023-03-02T04:12:12.727Z,9.32
2023-03-02T04:14:45.694Z,8.80
2023-03-02T04:17:16.135Z,8.98
2023-03-02T04:19:47.276Z,11.50
2023-03-02T04:22:17.346Z,9.27
2023-03-02T04:24:46.288Z,11.25
2023-03-02T04:27:16.021Z,11.07
2023-03-02T04:29:45.114Z,12.13
2023-03-02T04:32:15.867Z,10.95
2023-03-02T04:34:49.009Z,9.30
2023-03-02T04:37:18.103Z,10.18
2023-03-02T04:39:51.138Z,11.43
2023-03-02T04:44:48.833Z,10.45
2023-03-02T04:47:18.997Z,8.98
2023-03-02T04:49:50.021Z,12.98
2023-03-02T04:52:18.653Z,10.05
2023-03-02T04:54:47.478Z,10.77
2023-03-02T04:57:16.157Z,11.88
2023-03-02T04:59:45.096Z,10.23
2023-03-02T05:02:14.020Z,11.77
2023-03-02T05:04:44.379Z,10.27
2023-03-02T05:07:13.209Z,11.82
2023-03-02T05:09:41.934Z,10.23
2023-03-02T05:12:10.853Z,10.85
2023-03-02T05:14:39.507Z,9.32
2023-03-02T05:17:08.389Z,11.85
2023-03-02T05:19:37.165Z,11.13
2023-03-02T05:22:07.288Z,10.98
2023-03-02T05:24:37.369Z,10.93
2023-03-02T05:27:05.942Z,11.38
2023-03-02T05:29:34.795Z,9.70
2023-03-02T05:32:03.535Z,25.30
2023-03-02T05:34:32.358Z,11.43
2023-03-02T05:37:01.023Z,10.10
2023-03-02T05:39:31.132Z,12.63
2023-03-02T05:41:59.948Z,10.20
2023-03-02T05:44:28.801Z,12.23
2023-03-02T05:46:57.517Z,12.38
2023-03-02T05:49:26.480Z,6.97
2023-03-02T05:51:55.190Z,9.85
2023-03-02T05:54:24.261Z,10.55
2023-03-02T05:56:54.464Z,9.45
2023-03-02T05:59:26.382Z,8.00
2023-03-02T06:01:58.779Z,11.70
2023-03-02T06:04:27.811Z,9.23
2023-03-02T06:06:56.568Z,9.63
2023-03-02T06:09:25.351Z,9.93
2023-03-02T06:11:55.496Z,10.43
2023-03-02T06:14:24.200Z,9.93
2023-03-02T06:16:53.057Z,11.80
2023-03-02T06:19:21.851Z,13.98
2023-03-02T06:21:50.825Z,9.52
2023-03-02T06:24:19.566Z,9.75
2023-03-02T06:26:48.347Z,11.90
2023-03-02T06:29:18.549Z,11.93
2023-03-02T06:31:47.404Z,12.02
2023-03-02T06:34:17.253Z,13.18
2023-03-02T06:36:45.958Z,12.77
2023-03-02T06:39:16.836Z,11.05
2023-03-02T06:41:46.441Z,12.00
2023-03-02T06:44:16.190Z,8.57
2023-03-02T06:46:47.727Z,12.75
2023-03-02T06:49:16.583Z,10.40
2023-03-02T06:51:45.332Z,10.48
2023-03-02T06:54:14.140Z,9.18
2023-03-02T06:56:42.895Z,11.23
2023-03-02T06:59:11.748Z,11.98
2023-03-02T07:01:40.591Z,11.15
2023-03-02T07:04:10.686Z,10.90
2023-03-02T07:06:39.549Z,10.52
2023-03-02T07:09:08.222Z,10.57
2023-03-02T07:11:37.136Z,11.15
2023-03-02T07:14:05.930Z,9.75
2023-03-02T07:16:35.582Z,10.05
2023-03-02T07:19:04.484Z,9.55
2023-03-02T07:21:34.885Z,8.82
2023-03-02T07:24:03.701Z,10.65
2023-03-02T07:26:32.430Z,11.32
2023-03-02T07:29:01.105Z,12.43
2023-03-02T07:31:30.357Z,12.23
2023-03-02T07:33:59.373Z,12.02
2023-03-02T07:36:28.289Z,9.10
2023-03-02T07:38:58.621Z,10.30
2023-03-02T07:41:27.286Z,11.63
2023-03-02T07:43:57.042Z,11.35
2023-03-02T07:46:25.998Z,9.55
2023-03-02T07:48:55.098Z,12.02
2023-03-02T07:51:24.055Z,16.40
2023-03-02T07:53:52.770Z,9.52
2023-03-02T07:56:23.069Z,11.50
2023-03-02T07:58:51.761Z,12.38
2023-03-02T08:01:20.593Z,8.88
2023-03-02T08:03:49.412Z,12.32
2023-03-02T08:06:18.518Z,12.27
2023-03-02T08:08:47.490Z,11.50
2023-03-02T08:11:19.043Z,12.35
2023-03-02T08:13:49.204Z,12.52
2023-03-02T08:16:18.273Z,12.23
2023-03-02T08:18:47.100Z,13.57
2023-03-02T08:21:18.506Z,11.48
2023-03-02T08:23:47.590Z,11.35
2023-03-02T08:26:20.409Z,11.00
2023-03-02T08:28:50.656Z,13.27
2023-03-02T08:31:19.455Z,12.05
2023-03-02T08:33:48.314Z,13.23
2023-03-02T08:36:19.192Z,16.33
2023-03-02T08:38:48.780Z,11.00
2023-03-02T08:41:19.858Z,14.45
2023-03-02T08:43:50.076Z,15.80
2023-03-02T08:46:20.040Z,14.07
2023-03-02T08:48:49.683Z,11.98
2023-03-02T08:51:20.799Z,12.93
2023-03-02T08:53:51.511Z,14.18
2023-03-02T08:56:22.399Z,15.07
2023-03-02T08:58:54.816Z,12.90
2023-03-02T09:01:25.468Z,14.82
2023-03-02T09:03:54.523Z,11.05
2023-03-02T09:06:23.490Z,12.57
2023-03-02T09:08:52.568Z,12.63
2023-03-02T09:11:21.462Z,12.68
2023-03-02T09:13:50.356Z,13.07
2023-03-02T09:16:20.681Z,17.65
2023-03-02T09:18:49.534Z,14.30
2023-03-02T09:21:18.437Z,17.38
2023-03-02T09:23:47.173Z,14.93
2023-03-02T09:26:16.099Z,12.73
2023-03-02T09:28:44.942Z,14.57
2023-03-02T09:31:14.002Z,13.23
2023-03-02T09:33:44.861Z,14.75
2023-03-02T09:36:19.861Z,17.35
2023-03-02T09:38:49.033Z,15.95
2023-03-02T09:42:11.467Z,15.75
2023-03-02T09:45:18.897Z,12.13
2023-03-02T09:47:56.745Z,17.27
2023-03-02T09:50:32.656Z,13.13
2023-03-02T09:53:39.903Z,14.80
2023-03-02T09:56:15.564Z,19.38
2023-03-02T09:58:51.055Z,17.33
2023-03-02T10:01:30.488Z,14.25
2023-03-02T10:04:06.653Z,12.80
2023-03-02T10:06:37.022Z,13.55
2023-03-02T10:09:05.863Z,13.77
2023-03-02T10:11:50.668Z,12.13
2023-03-02T10:16:53.694Z,14.60
2023-03-02T10:19:27.069Z,16.08
2023-03-02T10:22:02.753Z,14.77
2023-03-02T10:24:39.645Z,14.98
2023-03-02T10:27:18.121Z,14.23
2023-03-02T10:29:55.578Z,13.55
2023-03-02T10:32:26.186Z,14.13
2023-03-02T10:34:55.715Z,21.90
2023-03-02T10:37:30.185Z,15.23
2023-03-02T10:39:59.200Z,17.38
2023-03-02T10:42:32.157Z,17.17
2023-03-02T10:45:09.651Z,16.42
2023-03-02T10:47:38.486Z,17.55
2023-03-02T10:50:25.857Z,16.05
2023-03-02T10:53:01.004Z,16.08
2023-03-02T10:55:31.804Z,21.73
2023-03-02T10:58:02.962Z,17.25
2023-03-02T11:00:32.719Z,18.65
2023-03-02T11:03:03.767Z,15.57
2023-03-02T11:05:34.782Z,17.00
2023-03-02T11:08:06.717Z,16.98
2023-03-02T11:10:37.839Z,20.25
2023-03-02T11:13:19.037Z,17.75
2023-03-02T11:15:49.514Z,25.15
2023-03-02T11:18:27.558Z,16.50
2023-03-02T11:21:02.017Z,14.52
2023-03-02T11:23:49.604Z,16.33
2023-03-02T11:26:24.801Z,15.02
2023-03-02T11:28:59.961Z,20.90
2023-03-02T11:31:34.890Z,18.02
2023-03-02T11:34:18.332Z,15.32
2023-03-02T11:36:57.464Z,14.90
2023-03-02T11:39:35.123Z,18.23
2023-03-02T11:42:04.899Z,18.98
2023-03-02T11:44:33.632Z,19.10
2023-03-02T11:47:03.073Z,16.58
2023-03-02T11:49:39.248Z,19.30
2023-03-02T11:52:17.134Z,15.30
2023-03-02T11:54:50.728Z,17.02
2023-03-02T11:57:24.213Z,17.33
2023-03-02T11:59:54.429Z,16.85
2023-03-02T12:02:24.213Z,17.58
2023-03-02T12:05:04.402Z,17.17
2023-03-02T12:07:33.739Z,19.17
2023-03-02T12:10:07.932Z,15.07
2023-03-02T12:12:58.939Z,16.80
2023-03-02T12:15:37.362Z,18.02
2023-03-02T12:18:31.365Z,18.95
2023-03-02T12:21:02.739Z,21.92
2023-03-02T12:23:32.991Z,17.33
2023-03-02T12:26:10.213Z,13.93
2023-03-02T12:28:40.934Z,17.27
2023-03-02T12:31:13.858Z,20.98
2023-03-02T12:33:46.745Z,19.20
2023-03-02T12:36:19.924Z,19.50
2023-03-02T12:39:03.924Z,21.20
2023-03-02T12:41:56.297Z,23.73
2023-03-02T12:44:35.086Z,16.58
2023-03-02T12:47:05.041Z,16.63
2023-03-02T12:49:47.403Z,21.00
2023-03-02T12:52:29.024Z,17.58
2023-03-02T12:55:07.290Z,17.48
2023-03-02T12:57:39.514Z,14.63
2023-03-02T13:00:18.435Z,16.63
2023-03-02T13:02:49.148Z,20.60
2023-03-02T13:05:21.652Z,18.20
2023-03-02T13:08:00.051Z,16.08
2023-03-02T13:10:32.504Z,18.13
2023-03-02T13:13:04.503Z,19.33
2023-03-02T13:15:33.487Z,18.98
2023-03-02T13:18:02.397Z,16.42
2023-03-02T13:20:31.829Z,22.98
2023-03-02T13:23:00.592Z,17.23
2023-03-02T13:25:31.295Z,18.48
2023-03-02T13:28:07.597Z,18.98
2023-03-02T13:30:43.580Z,19.05
2023-03-02T13:33:23.372Z,23.42
2023-03-02T13:35:52.303Z,19.30
2023-03-02T13:38:23.397Z,18.88
2023-03-02T13:40:54.139Z,18.30
2023-03-02T13:43:37.863Z,17.45
2023-03-02T13:46:25.546Z,17.73
2023-03-02T13:49:14.221Z,18.77
2023-03-02T13:51:46.488Z,18.67
2023-03-02T13:54:24.381Z,20.23
2023-03-02T13:56:54.466Z,17.75
2023-03-02T13:59:24.831Z,16.85
2023-03-02T14:01:54.062Z,17.45
2023-03-02T14:04:24.693Z,18.20
2023-03-02T14:06:56.102Z,17.95
2023-03-02T14:09:27.218Z,16.95
2023-03-02T14:11:57.863Z,15.68
2023-03-02T14:14:30.373Z,18.02
2023-03-02T14:19:27.778Z,19.60
2023-03-02T14:21:57.579Z,17.83
2023-03-02T14:24:26.462Z,17.63
2023-03-02T14:26:58.997Z,16.58
2023-03-02T14:29:31.603Z,15.18
2023-03-02T14:32:03.689Z,15.45
2023-03-02T14:34:32.520Z,19.05
2023-03-02T14:37:05.062Z,19.83
2023-03-02T14:39:37.016Z,15.90
2023-03-02T14:42:06.554Z,16.58
2023-03-02T14:44:37.044Z,18.50
2023-03-02T14:47:05.868Z,15.07
2023-03-02T14:49:34.842Z,19.00
2023-03-02T14:52:07.360Z,17.92
2023-03-02T14:54:41.554Z,17.65
2023-03-02T14:57:18.120Z,17.48
2023-03-02T14:59:51.216Z,15.98
2023-03-02T15:02:25.587Z,13.95
2023-03-02T15:04:57.150Z,20.85
2023-03-02T15:07:27.771Z,17.15
2023-03-02T15:09:57.429Z,18.83
2023-03-02T15:12:26.774Z,16.45
2023-03-02T15:14:56.879Z,16.15
2023-03-02T15:17:25.720Z,18.17
2023-03-02T15:19:54.590Z,15.85
2023-03-02T15:22:23.591Z,16.25
2023-03-02T15:24:52.505Z,14.98
2023-03-02T15:27:23.137Z,20.95
2023-03-02T15:29:52.075Z,13.35
2023-03-02T15:32:22.374Z,14.55
2023-03-02T15:34:54.256Z,13.85
2023-03-02T15:37:26.209Z,14.30
2023-03-02T15:39:56.112Z,15.35
2023-03-02T15:42:25.204Z,16.10
2023-03-02T15:44:53.975Z,15.90
2023-03-02T15:47:24.639Z,13.07
2023-03-02T15:49:53.377Z,15.48
2023-03-02T15:52:22.353Z,15.50
2023-03-02T15:54:51.326Z,11.73
2023-03-02T15:57:20.153Z,14.40
2023-03-02T15:59:48.885Z,16.83
2023-03-02T16:02:17.746Z,14.60
2023-03-02T16:04:48.169Z,16.20
2023-03-02T16:07:19.627Z,13.45
2023-03-02T16:09:48.876Z,11.73
2023-03-02T16:12:18.645Z,13.30
2023-03-02T16:14:47.473Z,16.77
2023-03-02T16:17:17.901Z,14.40
2023-03-02T16:19:48.042Z,14.75
2023-03-02T16:22:16.796Z,12.90
2023-03-02T16:24:46.174Z,12.60
2023-03-02T16:27:14.868Z,14.70
2023-03-02T16:29:43.747Z,18.92
2023-03-02T16:32:12.582Z,15.90
2023-03-02T16:34:41.508Z,14.70
2023-03-02T16:37:11.741Z,16.17
2023-03-02T16:39:40.595Z,15.43
2023-03-02T16:42:09.391Z,13.88
2023-03-02T16:44:39.246Z,15.40
2023-03-02T16:47:07.957Z,13.82
2023-03-02T16:49:36.762Z,15.90
2023-03-02T16:52:05.882Z,15.55
2023-03-02T16:54:35.924Z,13.10
2023-03-02T16:57:05.046Z,15.48
2023-03-02T16:59:33.829Z,15.50
2023-03-02T17:02:02.766Z,15.20
2023-03-02T17:04:34.780Z,14.65
2023-03-02T17:07:04.052Z,16.17
2023-03-02T17:09:35.158Z,16.40
2023-03-02T17:12:04.689Z,19.90
2023-03-02T17:14:33.433Z,15.48
2023-03-02T17:17:05.119Z,18.30
2023-03-02T17:19:34.259Z,14.52
2023-03-02T17:22:04.084Z,15.95
2023-03-02T17:24:32.867Z,15.38
2023-03-02T17:27:04.253Z,13.05
2023-03-02T17:29:34.282Z,15.13
2023-03-02T17:32:03.191Z,18.30
2023-03-02T17:34:32.015Z,15.15
2023-03-02T17:37:01.596Z,15.35
2023-03-02T17:39:30.610Z,12.90
2023-03-02T17:41:59.412Z,15.82
2023-03-02T17:44:29.743Z,11.10
2023-03-02T17:46:58.467Z,14.00
2023-03-02T17:49:27.386Z,15.15
2023-03-02T17:51:56.132Z,13.35
2023-03-02T17:54:24.978Z,14.10
2023-03-02T17:56:53.657Z,15.30
2023-03-02T17:59:23.513Z,16.45
2023-03-02T18:01:53.739Z,16.88
2023-03-02T18:04:22.848Z,17.48
2023-03-02T18:06:53.984Z,13.93
2023-03-02T18:09:23.326Z,15.73
2023-03-02T18:11:52.300Z,15.27
2023-03-02T18:14:21.772Z,15.52
2023-03-02T18:16:50.715Z,17.98
2023-03-02T18:19:21.163Z,14.73
2023-03-02T18:21:50.417Z,18.25
2023-03-02T18:24:19.262Z,17.38
2023-03-02T18:26:48.045Z,18.40
2023-03-02T18:29:17.199Z,14.80
2023-03-02T18:31:47.981Z,12.88
2023-03-02T18:34:16.908Z,15.65
2023-03-02T18:36:47.242Z,17.70
2023-03-02T18:39:16.165Z,16.17
2023-03-02T18:41:45.098Z,15.73
2023-03-02T18:44:13.950Z,15.88
2023-03-02T18:46:43.039Z,18.75
2023-03-02T18:49:11.835Z,16.27
2023-03-02T18:51:40.678Z,13.77
2023-03-02T18:54:10.939Z,17.17
2023-03-02T18:56:41.889Z,14.85
2023-03-02T18:59:11.193Z,17.75
2023-03-02T19:01:40.203Z,16.67
2023-03-02T19:04:09.089Z,14.82
2023-03-02T19:06:37.983Z,14.15
2023-03-02T19:09:06.830Z,14.43
2023-03-02T19:11:37.212Z,15.00
2023-03-02T19:14:05.999Z,12.80
2023-03-02T19:16:35.862Z,13.40
2023-03-02T19:19:04.707Z,17.55
2023-03-02T19:21:33.604Z,15.77
2023-03-02T19:24:02.665Z,16.80
2023-03-02T19:26:31.473Z,13.70
2023-03-02T19:29:01.672Z,14.60
2023-03-02T19:31:31.312Z,14.00
2023-03-02T19:34:01.204Z,14.25
2023-03-02T19:36:29.978Z,17.02
2023-03-02T19:38:58.796Z,13.13
2023-03-02T19:41:27.711Z,20.58
2023-03-02T19:43:56.498Z,16.60
2023-03-02T19:46:26.724Z,14.82
2023-03-02T19:48:55.682Z,14.52
2023-03-02T19:51:24.549Z,13.73
2023-03-02T19:53:53.287Z,13.57
2023-03-02T19:56:26.794Z,15.43
2023-03-02T19:58:55.456Z,12.38
2023-03-02T20:01:27.851Z,16.83
2023-03-02T20:03:57.922Z,15.20
2023-03-02T20:06:31.249Z,17.45
2023-03-02T20:09:01.600Z,16.08
2023-03-02T20:11:31.366Z,19.42
2023-03-02T20:14:02.165Z,16.58
2023-03-02T20:16:33.864Z,17.05
2023-03-02T20:19:03.583Z,15.27
2023-03-02T20:21:33.403Z,16.17
2023-03-02T20:24:03.528Z,17.50
2023-03-02T20:26:33.167Z,17.27
2023-03-02T20:29:04.924Z,18.33
2023-03-02T20:31:36.291Z,17.20
2023-03-02T20:34:08.699Z,16.48
2023-03-02T20:36:39.414Z,15.98
2023-03-02T20:39:12.111Z,16.27
2023-03-02T20:41:41.499Z,16.30
2023-03-02T20:44:14.495Z,15.75
2023-03-02T20:46:47.869Z,16.02
2023-03-02T20:49:16.917Z,16.92
2023-03-02T20:51:52.672Z,21.20
2023-03-02T20:54:25.080Z,15.05
2023-03-02T20:56:55.054Z,14.65
2023-03-02T20:59:24.734Z,17.13
2023-03-02T21:01:55.061Z,16.40
2023-03-02T21:04:24.096Z,18.80
2023-03-02T21:06:52.936Z,18.55
2023-03-02T21:09:22.292Z,15.77
2023-03-02T21:11:51.259Z,15.80
2023-03-02T21:14:20.517Z,18.73
2023-03-02T21:16:49.638Z,19.42
2023-03-02T21:19:20.379Z,16.92
2023-03-02T21:21:50.121Z,18.02
2023-03-02T21:24:20.793Z,21.38
2023-03-02T21:26:51.744Z,19.92
2023-03-02T21:29:23.021Z,30.80
2023-03-02T21:31:54.035Z,19.73
2023-03-02T21:34:24.761Z,19.80
2023-03-02T21:36:54.179Z,17.27
2023-03-02T21:39:24.178Z,18.65
2023-03-02T21:41:53.913Z,23.60
2023-03-02T21:44:23.004Z,16.80
2023-03-02T21:46:52.090Z,18.38
2023-03-02T21:49:23.733Z,18.23
2023-03-02T21:51:52.621Z,20.95
2023-03-02T21:54:21.555Z,18.33
2023-03-02T21:56:50.715Z,19.13
2023-03-02T21:59:22.321Z,17.23
2023-03-02T22:01:51.223Z,19.52
2023-03-02T22:04:20.044Z,18.63
2023-03-02T22:06:50.235Z,18.88
2023-03-02T22:09:19.197Z,18.13
2023-03-02T22:11:48.523Z,18.48
2023-03-02T22:14:18.723Z,25.02
2023-03-02T22:16:48.337Z,19.63
2023-03-02T22:19:26.977Z,17.90
2023-03-02T22:22:01.191Z,22.45
2023-03-02T22:24:32.094Z,20.90
2023-03-02T22:27:10.219Z,22.10
2023-03-02T22:29:45.693Z,20.60
2023-03-02T22:32:18.126Z,19.13
2023-03-02T22:34:48.822Z,19.58
2023-03-02T22:37:20.913Z,26.13
2023-03-02T22:39:51.593Z,22.23
2023-03-02T22:42:22.774Z,20.90
2023-03-02T22:44:56.732Z,21.60
2023-03-02T22:47:26.221Z,21.15
2023-03-02T22:49:58.069Z,23.15
2023-03-02T22:52:36.161Z,21.90
2023-03-02T22:55:31.844Z,21.13
2023-03-02T22:58:01.255Z,19.77
2023-03-02T23:00:38.428Z,22.70
2023-03-02T23:03:17.642Z,21.23
2023-03-02T23:05:49.192Z,19.52
2023-03-02T23:08:23.385Z,21.83
2023-03-02T23:10:54.000Z,22.77
2023-03-02T23:13:27.218Z,21.40
2023-03-02T23:15:56.474Z,22.20
2023-03-02T23:18:27.273Z,19.13
2023-03-02T23:20:56.682Z,21.67
2023-03-02T23:23:28.572Z,21.23
2023-03-02T23:25:57.489Z,23.70
2023-03-02T23:28:26.222Z,25.70
2023-03-02T23:30:54.954Z,22.15
2023-03-02T23:33:23.656Z,24.13
2023-03-02T23:35:52.696Z,20.77
2023-03-02T23:38:21.494Z,22.40
2023-03-02T23:40:51.657Z,26.10
2023-03-02T23:43:20.613Z,21.10
2023-03-02T23:45:49.428Z,26.17
2023-03-02T23:48:18.549Z,21.98
2023-03-02T23:50:47.291Z,22.85
2023-03-02T23:53:20.619Z,26.17
2023-03-02T23:55:53.622Z,26.00
2023-03-02T23:58:22.576Z,24.05
